Stolt Ami — 3EAZ5 — position and weather

sailwx.info

Track history (hours):
 
Tides and Currents Weather Stations Pressure Air Temp Water Temp Dewpoint Dewpoint Depression Visibility Wind Speed Wind Dir Waves Ship Positions

Stolt Ami

Last reported at 2016-Apr-09 02:25 UTC. Time now 2016-Apr-29 19:49 UTC.
Position N 29°45' W 095°06'.
Warning: this ship's position is 20 days out of date.

Length 143 m; draft 9.1 m.

Type: Ship (hazmat cat B). MMSI: 371392514.

Date/timePositionNaut miles runAvg speedWind from/ knotsBaromVisibWave heightAir tempDewpointWater temp
2016-Apr-09 02:25N 29°45' W 095°06'5 5.2
2016-Apr-09 01:33N 29°43' W 095°01'1110.7
2016-Apr-09 00:33N 29°34' W 094°55'1212.2
2016-Apr-08 23:33N 29°23' W 094°48'13 1.3
2016-Apr-08 13:27N 29°13' W 094°39'0 0.0
2016-Apr-08 12:15N 29°13' W 094°39'0 0.0
2016-Apr-08 11:33N 29°13' W 094°39'0 0.0
2016-Apr-08 10:33N 29°13' W 094°39'0 0.0
2016-Apr-08 09:33N 29°13' W 094°39'0 0.0
2016-Apr-08 08:33N 29°13' W 094°39'0 0.0
2016-Apr-08 07:33N 29°13' W 094°39'0 0.0
2016-Apr-08 06:33N 29°13' W 094°39'0 0.0
2016-Apr-08 05:33N 29°13' W 094°39'0 0.0
2016-Apr-08 04:30N 29°13' W 094°39'0 0.0
2016-Apr-08 03:33N 29°13' W 094°39'0 0.0
2016-Apr-08 02:33N 29°13' W 094°39'0 0.0
2016-Apr-08 01:30N 29°13' W 094°39'0 0.0
2016-Apr-08 00:30N 29°13' W 094°39'0 0.0
2016-Apr-07 23:33N 29°13' W 094°39'0 0.0
2016-Apr-07 20:03N 29°13' W 094°39'0 0.0
2016-Apr-07 19:27N 29°13' W 094°39'0 0.0
2016-Apr-07 15:09N 29°13' W 094°39'0 0.0
2016-Apr-07 14:33N 29°13' W 094°39'0 0.0
2016-Apr-07 13:27N 29°13' W 094°39'0 0.0
2016-Apr-07 12:33N 29°13' W 094°39'0 0.0
2016-Apr-07 11:24N 29°13' W 094°39'0 0.0
2016-Apr-07 10:33N 29°13' W 094°39'0 0.0
2016-Apr-07 09:33N 29°13' W 094°39'0 0.0
2016-Apr-07 08:33N 29°13' W 094°39'0 0.0
2016-Apr-07 07:33N 29°13' W 094°39'0 0.0
2016-Apr-07 06:33N 29°13' W 094°39'0 0.0
2016-Apr-07 05:24N 29°13' W 094°39'0 0.0
2016-Apr-07 04:03N 29°13' W 094°39'0 0.0
2016-Apr-07 03:30N 29°13' W 094°39'0 0.0
2016-Apr-07 02:33N 29°13' W 094°39'0 0.0
2016-Apr-05 14:33N 29°13' W 094°39'0 0.0
2016-Apr-05 13:30N 29°13' W 094°39'0 0.0
2016-Apr-05 12:33N 29°13' W 094°39'0 0.0
2016-Apr-05 11:33N 29°13' W 094°39'0 0.0
2016-Apr-05 10:33N 29°13' W 094°39'0 0.2
2016-Apr-05 09:33N 29°13' W 094°39'7 7.3
2016-Apr-05 08:34N 29°20' W 094°41'1010.1
2016-Apr-05 07:34N 29°26' W 094°50'1111.3
2016-Apr-05 06:34N 29°36' W 094°57'9 9.1
2016-Apr-05 05:34N 29°44' W 095°02'5 4.9
2016-Apr-05 04:33N 29°44' W 095°08'0 0.0
2016-Apr-05 01:33N 29°44' W 095°08'0 0.0
2016-Apr-05 00:33N 29°44' W 095°08'0 0.0
2016-Apr-04 23:33N 29°44' W 095°08'0 0.0
2016-Apr-04 22:30N 29°44' W 095°08'0 0.0
2016-Apr-04 21:27N 29°44' W 095°08'0 0.0
2016-Apr-04 09:23N 29°44' W 095°08'0 0.0
2016-Apr-04 08:29N 29°44' W 095°08'0 0.0
2016-Apr-04 05:25N 29°44' W 095°08'4 4.2
2016-Apr-04 04:24N 29°44' W 095°03'8 9.1
2016-Apr-04 03:33N 29°38' W 094°58'1211.8
2016-Apr-04 02:33N 29°27' W 094°51'47 3.4
2016-Apr-03 12:33N 29°29' W 093°57'1111.0
2016-Apr-03 11:33N 29°34' W 093°46'1111.2
2016-Apr-03 10:33N 29°44' W 093°52'8 8.1
2016-Apr-03 09:33N 29°50' W 093°57'8 8.1
2016-Apr-03 08:33N 29°57' W 093°52'6 6.4
2016-Apr-03 07:33N 30°01' W 093°58'5 5.3
2016-Apr-03 06:33N 30°04' W 094°03'1 0.0
2016-Apr-01 04:30N 30°04' W 094°04'4 4.0
2016-Apr-01 03:33N 30°01' W 094°01'8 7.9
2016-Apr-01 02:33N 29°59' W 093°53'8 7.9
2016-Apr-01 01:31N 29°51' W 093°57'8 8.3
2016-Apr-01 00:32N 29°44' W 093°52'11 5.4
2016-Mar-31 22:34N 29°35' W 093°45'1 0.0
2016-Mar-31 00:22N 29°36' W 093°44'0 0.0
2016-Mar-30 16:07N 29°36' W 093°44'0 0.0
2016-Mar-30 13:16N 29°36' W 093°44'0 0.0
2016-Mar-30 12:19N 29°36' W 093°44'0 0.0
2016-Mar-30 11:31N 29°36' W 093°44'0 0.0
2016-Mar-30 09:28N 29°36' W 093°44'0 0.0
2016-Mar-30 08:19N 29°36' W 093°44'0 0.0
2016-Mar-30 07:25N 29°36' W 093°44'0 0.0
2016-Mar-30 05:22N 29°36' W 093°44'0 0.0
2016-Mar-30 04:22N 29°36' W 093°45'0 0.0
2016-Mar-30 03:28N 29°36' W 093°45'0 0.0
2016-Mar-30 02:28N 29°36' W 093°45'  
Track history (hours):
 
Tides and Currents Weather Stations Pressure Air Temp Water Temp Dewpoint Dewpoint Depression Visibility Wind Speed Wind Dir Waves Ship Positions

Stolt Ami

Last reported at 2016-Apr-09 02:25 UTC. Time now 2016-Apr-29 19:49 UTC.
Position N 29°45' W 095°06'.
Warning: this ship's position is 20 days out of date.

Length 143 m; draft 9.1 m.

Type: Ship (hazmat cat B). MMSI: 371392514.

Date/timePositionNaut miles runAvg speedWind from/ knotsBaromVisibWave heightAir tempDewpointWater temp
2016-Apr-09 02:25N 29°45' W 095°06'5 5.2
2016-Apr-09 01:33N 29°43' W 095°01'1110.7
2016-Apr-09 00:33N 29°34' W 094°55'1212.2
2016-Apr-08 23:33N 29°23' W 094°48'13 1.3
2016-Apr-08 13:27N 29°13' W 094°39'0 0.0
2016-Apr-08 12:15N 29°13' W 094°39'0 0.0
2016-Apr-08 11:33N 29°13' W 094°39'0 0.0
2016-Apr-08 10:33N 29°13' W 094°39'0 0.0
2016-Apr-08 09:33N 29°13' W 094°39'0 0.0
2016-Apr-08 08:33N 29°13' W 094°39'0 0.0
2016-Apr-08 07:33N 29°13' W 094°39'0 0.0
2016-Apr-08 06:33N 29°13' W 094°39'0 0.0
2016-Apr-08 05:33N 29°13' W 094°39'0 0.0
2016-Apr-08 04:30N 29°13' W 094°39'0 0.0
2016-Apr-08 03:33N 29°13' W 094°39'0 0.0
2016-Apr-08 02:33N 29°13' W 094°39'0 0.0
2016-Apr-08 01:30N 29°13' W 094°39'0 0.0
2016-Apr-08 00:30N 29°13' W 094°39'0 0.0
2016-Apr-07 23:33N 29°13' W 094°39'0 0.0
2016-Apr-07 20:03N 29°13' W 094°39'0 0.0
2016-Apr-07 19:27N 29°13' W 094°39'0 0.0
2016-Apr-07 15:09N 29°13' W 094°39'0 0.0
2016-Apr-07 14:33N 29°13' W 094°39'0 0.0
2016-Apr-07 13:27N 29°13' W 094°39'0 0.0
2016-Apr-07 12:33N 29°13' W 094°39'0 0.0
2016-Apr-07 11:24N 29°13' W 094°39'0 0.0
2016-Apr-07 10:33N 29°13' W 094°39'0 0.0
2016-Apr-07 09:33N 29°13' W 094°39'0 0.0
2016-Apr-07 08:33N 29°13' W 094°39'0 0.0
2016-Apr-07 07:33N 29°13' W 094°39'0 0.0
2016-Apr-07 06:33N 29°13' W 094°39'0 0.0
2016-Apr-07 05:24N 29°13' W 094°39'0 0.0
2016-Apr-07 04:03N 29°13' W 094°39'0 0.0
2016-Apr-07 03:30N 29°13' W 094°39'0 0.0
2016-Apr-07 02:33N 29°13' W 094°39'0 0.0
2016-Apr-05 14:33N 29°13' W 094°39'0 0.0
2016-Apr-05 13:30N 29°13' W 094°39'0 0.0
2016-Apr-05 12:33N 29°13' W 094°39'0 0.0
2016-Apr-05 11:33N 29°13' W 094°39'0 0.0
2016-Apr-05 10:33N 29°13' W 094°39'0 0.2
2016-Apr-05 09:33N 29°13' W 094°39'7 7.3
2016-Apr-05 08:34N 29°20' W 094°41'1010.1
2016-Apr-05 07:34N 29°26' W 094°50'1111.3
2016-Apr-05 06:34N 29°36' W 094°57'9 9.1
2016-Apr-05 05:34N 29°44' W 095°02'5 4.9
2016-Apr-05 04:33N 29°44' W 095°08'0 0.0
2016-Apr-05 01:33N 29°44' W 095°08'0 0.0
2016-Apr-05 00:33N 29°44' W 095°08'0 0.0
2016-Apr-04 23:33N 29°44' W 095°08'0 0.0
2016-Apr-04 22:30N 29°44' W 095°08'0 0.0
2016-Apr-04 21:27N 29°44' W 095°08'0 0.0
2016-Apr-04 09:23N 29°44' W 095°08'0 0.0
2016-Apr-04 08:29N 29°44' W 095°08'0 0.0
2016-Apr-04 05:25N 29°44' W 095°08'4 4.2
2016-Apr-04 04:24N 29°44' W 095°03'8 9.1
2016-Apr-04 03:33N 29°38' W 094°58'1211.8
2016-Apr-04 02:33N 29°27' W 094°51'47 3.4
2016-Apr-03 12:33N 29°29' W 093°57'1111.0
2016-Apr-03 11:33N 29°34' W 093°46'1111.2
2016-Apr-03 10:33N 29°44' W 093°52'8 8.1
2016-Apr-03 09:33N 29°50' W 093°57'8 8.1
2016-Apr-03 08:33N 29°57' W 093°52'6 6.4
2016-Apr-03 07:33N 30°01' W 093°58'5 5.3
2016-Apr-03 06:33N 30°04' W 094°03'1 0.0
2016-Apr-01 04:30N 30°04' W 094°04'4 4.0
2016-Apr-01 03:33N 30°01' W 094°01'8 7.9
2016-Apr-01 02:33N 29°59' W 093°53'8 7.9
2016-Apr-01 01:31N 29°51' W 093°57'8 8.3
2016-Apr-01 00:32N 29°44' W 093°52'11 5.4
2016-Mar-31 22:34N 29°35' W 093°45'1 0.0
2016-Mar-31 00:22N 29°36' W 093°44'0 0.0
2016-Mar-30 16:07N 29°36' W 093°44'0 0.0
2016-Mar-30 13:16N 29°36' W 093°44'0 0.0
2016-Mar-30 12:19N 29°36' W 093°44'0 0.0
2016-Mar-30 11:31N 29°36' W 093°44'0 0.0
2016-Mar-30 09:28N 29°36' W 093°44'0 0.0
2016-Mar-30 08:19N 29°36' W 093°44'0 0.0
2016-Mar-30 07:25N 29°36' W 093°44'0 0.0
2016-Mar-30 05:22N 29°36' W 093°44'0 0.0
2016-Mar-30 04:22N 29°36' W 093°45'0 0.0
2016-Mar-30 03:28N 29°36' W 093°45'0 0.0
2016-Mar-30 02:28N 29°36' W 093°45'  

Dump ship's entire track history